Airport ID:KSMD
Update Time (UTC):20/09/2019 08:13
Wind Speed (Knots):0
Wind Direction (Magnetic):30
Temperature (°C):16.9
Dew Point (°C):16.9
Humidity (%):100
Altimeter (inHg):30.13
Density Altitude (Feet):
Visibility (Miles):7
Clouds (Hundreds of feet):\\\\
Present Weather:BR
METAR:METAR KSMD 200810Z AUTO 00000KT 6SM BR 17/17 A3013 RMK A01

The data displayed is for advisory purposes only and is not to be used for flight planning or operations.

This page is not automatically refreshed. Reload the page to see current data.